createdAt,value
2017-08-30T00:02:21.337Z,22.32
2017-08-30T00:04:49.931Z,22.29
2017-08-30T00:07:19.636Z,22.38
2017-08-30T00:09:49.260Z,22.39
2017-08-30T00:12:18.347Z,22.43
2017-08-30T00:14:46.699Z,22.40
2017-08-30T00:17:16.096Z,22.27
2017-08-30T00:19:44.515Z,22.15
2017-08-30T00:22:12.867Z,21.87
2017-08-30T00:27:55.830Z,22.13
2017-08-30T00:30:26.839Z,22.23
2017-08-30T00:32:55.411Z,22.40
2017-08-30T00:35:23.784Z,22.53
2017-08-30T00:37:52.461Z,22.49
2017-08-30T00:40:21.335Z,22.38
2017-08-30T00:42:49.714Z,22.45
2017-08-30T00:45:18.655Z,22.66
2017-08-30T00:47:47.033Z,22.65
2017-08-30T00:50:16.435Z,22.60
2017-08-30T00:52:45.138Z,22.65
2017-08-30T00:55:14.287Z,22.78
2017-08-30T00:57:42.621Z,22.76
2017-08-30T01:00:12.232Z,22.81
2017-08-30T01:02:41.018Z,22.73
2017-08-30T01:05:09.386Z,22.88
2017-08-30T01:07:39.053Z,22.97
2017-08-30T01:10:09.569Z,22.91
2017-08-30T01:12:38.124Z,22.83
2017-08-30T01:15:07.246Z,22.65
2017-08-30T01:17:35.604Z,22.68
2017-08-30T01:20:03.944Z,22.48
2017-08-30T01:22:32.761Z,22.54
2017-08-30T01:25:01.126Z,22.35
2017-08-30T01:27:30.275Z,22.52
2017-08-30T01:29:58.965Z,22.44
2017-08-30T01:32:27.326Z,22.19
2017-08-30T01:34:55.682Z,22.00
2017-08-30T01:37:24.532Z,21.97
2017-08-30T01:39:52.954Z,21.71
2017-08-30T01:42:21.291Z,21.66
2017-08-30T01:44:50.425Z,21.69
2017-08-30T01:47:19.413Z,21.85
2017-08-30T01:49:48.539Z,21.74
2017-08-30T01:52:17.404Z,21.82
2017-08-30T01:54:45.747Z,21.84
2017-08-30T01:57:14.091Z,21.89
2017-08-30T01:59:42.779Z,21.89
2017-08-30T02:02:11.130Z,21.90
2017-08-30T02:04:39.481Z,21.96
2017-08-30T02:07:09.184Z,21.96
2017-08-30T02:09:37.549Z,21.88
2017-08-30T02:12:06.013Z,21.84
2017-08-30T02:14:34.891Z,21.83
2017-08-30T02:17:03.241Z,21.79
2017-08-30T02:19:31.607Z,21.81
2017-08-30T02:22:00.268Z,21.75
2017-08-30T02:24:28.633Z,21.71
2017-08-30T02:26:57.117Z,21.71
2017-08-30T02:29:26.633Z,21.56
2017-08-30T02:31:55.753Z,21.53
2017-08-30T02:34:24.892Z,21.59
2017-08-30T02:36:53.585Z,21.62
2017-08-30T02:39:21.962Z,21.53
2017-08-30T02:41:50.328Z,21.54
2017-08-30T02:44:20.542Z,21.58
2017-08-30T02:46:49.126Z,21.75
2017-08-30T02:49:17.469Z,21.80
2017-08-30T02:51:46.659Z,21.80
2017-08-30T02:54:15.027Z,21.65
2017-08-30T02:56:43.922Z,21.77
2017-08-30T02:59:12.949Z,21.83
2017-08-30T03:01:43.073Z,21.78
2017-08-30T03:04:12.209Z,21.62
2017-08-30T03:06:40.879Z,21.58
2017-08-30T03:09:10.088Z,21.56
2017-08-30T03:11:38.450Z,21.70
2017-08-30T03:14:07.087Z,21.72
2017-08-30T03:16:35.451Z,21.69
2017-08-30T03:19:03.798Z,21.77
2017-08-30T03:21:32.541Z,21.67
2017-08-30T03:24:01.627Z,21.64
2017-08-30T03:26:30.418Z,21.72
2017-08-30T03:28:59.042Z,21.80
2017-08-30T03:31:27.394Z,21.81
2017-08-30T03:33:56.182Z,21.97
2017-08-30T03:36:24.990Z,21.93
2017-08-30T03:38:53.675Z,21.96
2017-08-30T03:41:22.010Z,21.94
2017-08-30T03:43:52.726Z,21.90
2017-08-30T03:46:21.109Z,21.74
2017-08-30T03:48:49.466Z,21.70
2017-08-30T03:51:18.956Z,21.74
2017-08-30T03:53:47.321Z,21.18
2017-08-30T03:56:16.313Z,21.25
2017-08-30T03:58:45.126Z,21.36
2017-08-30T04:01:13.695Z,21.46
2017-08-30T04:03:42.055Z,21.40
2017-08-30T04:06:11.538Z,21.47
2017-08-30T04:08:40.765Z,21.44
2017-08-30T04:11:09.120Z,21.25
2017-08-30T04:13:38.227Z,21.28
2017-08-30T04:16:06.575Z,21.34
2017-08-30T04:18:35.519Z,21.41
2017-08-30T04:21:05.057Z,21.47
2017-08-30T04:23:33.552Z,21.40
2017-08-30T04:26:03.259Z,21.35
2017-08-30T04:28:32.056Z,21.38
2017-08-30T04:31:00.421Z,21.57
2017-08-30T04:33:28.779Z,21.58
2017-08-30T04:35:57.546Z,21.62
2017-08-30T04:38:26.409Z,21.70
2017-08-30T04:40:54.775Z,21.79
2017-08-30T04:43:23.404Z,21.91
2017-08-30T04:45:52.673Z,21.91
2017-08-30T04:48:21.036Z,21.97
2017-08-30T04:50:49.751Z,21.81
2017-08-30T04:53:18.945Z,21.66
2017-08-30T04:55:47.734Z,21.68
2017-08-30T04:58:16.442Z,21.72
2017-08-30T05:00:45.678Z,21.85
2017-08-30T05:03:14.847Z,22.01
2017-08-30T05:05:43.903Z,22.33
2017-08-30T05:08:12.254Z,22.42
2017-08-30T05:10:40.616Z,22.41
2017-08-30T05:13:10.361Z,22.51
2017-08-30T05:15:38.703Z,22.43
2017-08-30T05:18:07.052Z,22.53
2017-08-30T05:20:35.992Z,22.70
2017-08-30T05:23:04.358Z,22.66
2017-08-30T05:25:32.734Z,22.54
2017-08-30T05:28:02.424Z,22.67
2017-08-30T05:30:32.136Z,23.08
2017-08-30T05:33:02.898Z,23.30
2017-08-30T05:35:31.585Z,23.52
2017-08-30T05:38:00.986Z,23.72
2017-08-30T05:40:30.203Z,23.90
2017-08-30T05:42:58.559Z,24.12
2017-08-30T05:45:27.750Z,24.22
2017-08-30T05:47:57.522Z,24.35
2017-08-30T05:52:06.566Z,24.38
2017-08-30T05:54:35.407Z,24.46
2017-08-30T05:57:03.767Z,24.43
2017-08-30T05:59:32.131Z,24.47
2017-08-30T06:02:01.291Z,24.39
2017-08-30T06:04:29.900Z,24.63
2017-08-30T06:06:58.248Z,24.65
2017-08-30T06:09:26.893Z,24.50
2017-08-30T06:11:55.244Z,24.58
2017-08-30T06:14:24.383Z,24.56
2017-08-30T06:16:53.375Z,24.48
2017-08-30T06:19:25.337Z,24.67
2017-08-30T06:21:53.715Z,24.87
2017-08-30T06:24:23.151Z,24.90
2017-08-30T06:26:53.939Z,25.07
2017-08-30T06:29:23.186Z,24.91
2017-08-30T06:31:52.055Z,24.53
2017-08-30T06:34:20.414Z,24.65
2017-08-30T06:36:48.820Z,25.03
2017-08-30T06:39:17.725Z,25.17
2017-08-30T06:41:46.075Z,24.89
2017-08-30T06:44:14.445Z,25.15
2017-08-30T06:46:44.231Z,25.13
2017-08-30T06:49:12.568Z,25.33
2017-08-30T06:51:40.918Z,25.58
2017-08-30T06:54:09.556Z,25.65
2017-08-30T06:56:37.898Z,25.50
2017-08-30T06:59:06.280Z,25.58
2017-08-30T07:01:34.989Z,25.88
2017-08-30T07:04:03.781Z,26.44
2017-08-30T07:06:32.254Z,26.54
2017-08-30T07:09:00.953Z,26.71
2017-08-30T07:11:29.612Z,26.77
2017-08-30T07:13:58.944Z,27.10
2017-08-30T07:16:27.716Z,27.24
2017-08-30T07:18:56.093Z,27.69
2017-08-30T07:21:24.909Z,27.60
2017-08-30T07:23:53.931Z,27.96
2017-08-30T07:26:22.639Z,28.21
2017-08-30T07:28:51.011Z,28.06
2017-08-30T07:31:20.212Z,28.63
2017-08-30T07:33:48.579Z,28.36
2017-08-30T07:36:16.991Z,28.07
2017-08-30T07:38:45.662Z,28.13
2017-08-30T07:41:14.092Z,28.45
2017-08-30T07:43:43.233Z,28.80
2017-08-30T07:46:14.254Z,29.02
2017-08-30T07:48:42.652Z,28.59
2017-08-30T07:51:12.861Z,28.28
2017-08-30T07:53:42.448Z,28.59
2017-08-30T07:56:10.849Z,28.85
2017-08-30T07:58:39.427Z,29.22
2017-08-30T08:01:08.063Z,30.02
2017-08-30T08:03:37.059Z,30.52
2017-08-30T08:06:05.453Z,30.71
2017-08-30T08:08:34.241Z,30.70
2017-08-30T08:11:03.336Z,31.31
2017-08-30T08:13:31.800Z,31.22
2017-08-30T08:16:00.539Z,31.37
2017-08-30T08:18:28.913Z,31.25
2017-08-30T08:20:57.272Z,31.70
2017-08-30T08:23:26.044Z,31.14
2017-08-30T08:25:55.073Z,31.42
2017-08-30T08:28:23.434Z,31.76
2017-08-30T08:30:52.243Z,32.58
2017-08-30T08:33:20.604Z,32.44
2017-08-30T08:35:48.980Z,32.83
2017-08-30T08:38:17.631Z,32.86
2017-08-30T08:40:46.010Z,32.87
2017-08-30T08:43:14.414Z,32.76
2017-08-30T08:45:43.620Z,31.72
2017-08-30T08:48:12.760Z,32.06
2017-08-30T08:50:41.640Z,32.84
2017-08-30T08:53:10.497Z,32.89
2017-08-30T08:55:38.914Z,33.17
2017-08-30T08:58:08.177Z,32.93
2017-08-30T09:00:37.718Z,33.17
2017-08-30T09:03:06.872Z,33.37
2017-08-30T09:05:35.251Z,33.89
2017-08-30T09:08:03.942Z,34.92
2017-08-30T09:10:32.279Z,35.64
2017-08-30T09:13:00.669Z,34.94
2017-08-30T09:15:29.516Z,36.11
2017-08-30T09:17:57.881Z,37.19
2017-08-30T09:20:27.060Z,36.52
2017-08-30T09:22:55.783Z,36.14
2017-08-30T09:25:24.967Z,35.00
2017-08-30T09:27:54.109Z,36.12
2017-08-30T09:30:22.768Z,36.72
2017-08-30T09:32:51.156Z,37.42
2017-08-30T09:35:20.653Z,38.22
2017-08-30T09:37:49.685Z,37.63
2017-08-30T09:40:18.045Z,36.94
2017-08-30T09:42:48.015Z,36.13
2017-08-30T09:45:17.720Z,35.77
2017-08-30T09:47:46.104Z,37.04
2017-08-30T09:50:14.608Z,37.53
2017-08-30T09:52:43.909Z,37.49
2017-08-30T09:55:13.118Z,37.91
2017-08-30T09:57:42.109Z,38.26
2017-08-30T10:00:10.906Z,37.50
2017-08-30T10:02:39.286Z,38.55
2017-08-30T10:05:08.201Z,38.87
2017-08-30T10:07:37.860Z,38.61
2017-08-30T10:10:06.947Z,38.67
2017-08-30T10:12:35.309Z,38.72
2017-08-30T10:15:04.075Z,39.32
2017-08-30T10:17:32.631Z,38.83
2017-08-30T10:20:02.067Z,37.60
2017-08-30T10:22:31.162Z,37.50
2017-08-30T10:25:00.352Z,38.23
2017-08-30T10:27:29.523Z,38.70
2017-08-30T10:29:58.200Z,38.10
2017-08-30T10:32:26.589Z,38.60
2017-08-30T10:34:54.943Z,39.47
2017-08-30T10:37:23.689Z,39.95
2017-08-30T10:39:52.911Z,40.40
2017-08-30T10:42:21.294Z,40.25
2017-08-30T10:44:49.979Z,39.87
2017-08-30T10:47:18.317Z,40.71
2017-08-30T10:49:46.690Z,40.21
2017-08-30T10:52:15.885Z,39.90
2017-08-30T10:54:44.292Z,40.45
2017-08-30T10:57:12.647Z,41.23
2017-08-30T10:59:41.442Z,40.70
2017-08-30T11:02:09.908Z,40.59
2017-08-30T11:04:38.410Z,39.85
2017-08-30T11:07:07.279Z,39.54
2017-08-30T11:09:35.634Z,39.53
2017-08-30T11:12:04.581Z,39.09
2017-08-30T11:14:33.295Z,40.07
2017-08-30T11:17:01.634Z,39.68
2017-08-30T11:19:30.046Z,40.62
2017-08-30T11:21:58.838Z,41.03
2017-08-30T11:24:28.880Z,41.15
2017-08-30T11:26:57.362Z,40.76
2017-08-30T11:29:27.081Z,39.02
2017-08-30T11:31:55.473Z,40.37
2017-08-30T11:34:23.826Z,40.20
2017-08-30T11:36:52.680Z,38.66
2017-08-30T11:39:21.032Z,39.02
2017-08-30T11:41:49.388Z,39.49
2017-08-30T11:44:18.633Z,39.99
2017-08-30T11:46:47.651Z,40.18
2017-08-30T11:49:16.843Z,38.75
2017-08-30T11:51:45.647Z,39.48
2017-08-30T11:54:14.001Z,38.77
2017-08-30T11:56:43.342Z,38.10
2017-08-30T11:59:12.204Z,37.68
2017-08-30T12:01:40.533Z,37.27
2017-08-30T12:04:08.903Z,36.47
2017-08-30T12:06:37.560Z,35.67
2017-08-30T12:09:07.580Z,36.02
2017-08-30T12:11:37.364Z,37.16
2017-08-30T12:14:06.136Z,36.96
2017-08-30T12:16:34.543Z,36.71
2017-08-30T12:19:03.247Z,36.74
2017-08-30T12:21:32.424Z,37.13
2017-08-30T12:24:00.993Z,37.17
2017-08-30T12:26:30.927Z,36.90
2017-08-30T12:29:01.556Z,35.60
2017-08-30T12:31:29.898Z,35.32
2017-08-30T12:33:58.863Z,35.01
2017-08-30T12:36:27.630Z,34.67
2017-08-30T12:39:01.463Z,34.29
2017-08-30T12:41:30.186Z,34.29
2017-08-30T12:44:00.273Z,33.83
2017-08-30T12:46:28.684Z,33.48
2017-08-30T12:48:58.439Z,34.06
2017-08-30T12:51:28.252Z,33.89
2017-08-30T12:53:56.647Z,34.59
2017-08-30T12:56:25.520Z,34.90
2017-08-30T12:58:54.618Z,35.44
2017-08-30T13:01:24.504Z,35.95
2017-08-30T13:03:53.697Z,36.06
2017-08-30T13:06:22.675Z,35.40
2017-08-30T13:08:51.898Z,36.19
2017-08-30T13:11:21.559Z,35.69
2017-08-30T13:13:52.076Z,35.87
2017-08-30T13:16:21.590Z,36.35
2017-08-30T13:18:52.189Z,36.06
2017-08-30T13:21:21.356Z,35.95
2017-08-30T13:23:50.579Z,36.52
2017-08-30T13:26:19.594Z,35.84
2017-08-30T13:29:09.370Z,36.45
2017-08-30T13:31:42.801Z,36.81
2017-08-30T13:34:12.206Z,36.87
2017-08-30T13:36:40.907Z,36.72
2017-08-30T13:39:10.606Z,36.24
2017-08-30T13:41:39.160Z,35.70
2017-08-30T13:44:08.052Z,35.48
2017-08-30T13:46:37.787Z,35.44
2017-08-30T13:49:06.442Z,34.90
2017-08-30T13:51:35.737Z,34.74
2017-08-30T13:54:06.092Z,34.58
2017-08-30T13:56:35.952Z,34.53
2017-08-30T13:59:05.676Z,34.53
2017-08-30T14:01:35.945Z,34.26
2017-08-30T14:04:05.473Z,33.75
2017-08-30T14:06:36.150Z,33.45
2017-08-30T14:09:09.980Z,32.90
2017-08-30T14:11:39.517Z,32.23
2017-08-30T14:14:08.857Z,32.46
2017-08-30T14:16:38.551Z,32.11
2017-08-30T14:19:07.769Z,31.96
2017-08-30T14:21:36.185Z,32.02
2017-08-30T14:24:05.691Z,31.99
2017-08-30T14:26:34.117Z,32.37
2017-08-30T14:29:03.249Z,32.15
2017-08-30T14:31:31.934Z,32.20
2017-08-30T14:34:00.297Z,32.32
2017-08-30T14:36:29.022Z,32.25
2017-08-30T14:38:57.855Z,32.60
2017-08-30T14:41:27.031Z,32.28
2017-08-30T14:43:55.414Z,32.27
2017-08-30T14:46:24.254Z,32.36
2017-08-30T14:48:52.747Z,32.38
2017-08-30T14:51:21.181Z,32.41
2017-08-30T14:53:49.905Z,32.54
2017-08-30T14:56:18.274Z,32.59
2017-08-30T14:58:46.642Z,32.69
2017-08-30T15:01:15.558Z,32.69
2017-08-30T15:03:45.365Z,32.88
2017-08-30T15:06:14.645Z,33.03
2017-08-30T15:08:44.437Z,33.13
2017-08-30T15:11:12.804Z,33.02
2017-08-30T15:13:41.180Z,33.01
2017-08-30T15:16:10.336Z,32.84
2017-08-30T15:18:38.775Z,32.48
2017-08-30T15:21:09.325Z,32.15
2017-08-30T15:23:38.470Z,32.08
2017-08-30T15:26:06.826Z,32.03
2017-08-30T15:28:35.724Z,32.18
2017-08-30T15:31:05.312Z,32.12
2017-08-30T15:33:33.732Z,32.11
2017-08-30T15:36:02.105Z,32.18
2017-08-30T15:38:30.996Z,31.96
2017-08-30T15:41:01.640Z,32.06
2017-08-30T15:43:30.581Z,31.84
2017-08-30T15:45:59.329Z,31.92
2017-08-30T15:48:27.764Z,31.73
2017-08-30T15:50:56.118Z,31.96
2017-08-30T15:53:25.474Z,31.81
2017-08-30T15:55:53.892Z,32.15
2017-08-30T15:58:22.332Z,32.36
2017-08-30T16:00:51.397Z,32.32
2017-08-30T16:03:20.747Z,32.31
2017-08-30T16:05:49.951Z,32.19
2017-08-30T16:08:19.384Z,32.24
2017-08-30T16:10:48.422Z,32.34
2017-08-30T16:13:18.761Z,32.20
2017-08-30T16:15:48.148Z,32.14
2017-08-30T16:18:16.898Z,32.07
2017-08-30T16:20:46.078Z,32.06
2017-08-30T16:23:16.977Z,32.22
2017-08-30T16:25:45.432Z,32.33
2017-08-30T16:28:14.514Z,31.87
2017-08-30T16:30:43.384Z,32.01
2017-08-30T16:33:12.873Z,32.09
2017-08-30T16:35:43.724Z,32.15
2017-08-30T16:38:13.007Z,32.25
2017-08-30T16:40:42.482Z,32.05
2017-08-30T16:43:11.949Z,32.09
2017-08-30T16:45:41.271Z,32.13
2017-08-30T16:48:10.567Z,31.90
2017-08-30T16:50:41.562Z,31.93
2017-08-30T16:53:11.392Z,32.00
2017-08-30T16:55:40.486Z,31.95
2017-08-30T16:58:10.416Z,31.98
2017-08-30T17:00:40.119Z,32.01
2017-08-30T17:03:09.328Z,32.01
2017-08-30T17:05:39.550Z,31.78
2017-08-30T17:08:08.315Z,31.84
2017-08-30T17:10:36.939Z,31.84
2017-08-30T17:13:06.028Z,31.94
2017-08-30T17:15:37.286Z,31.82
2017-08-30T17:18:06.491Z,31.75
2017-08-30T17:20:35.144Z,31.61
2017-08-30T17:23:04.902Z,31.52
2017-08-30T17:25:34.083Z,31.58
2017-08-30T17:28:03.703Z,31.52
2017-08-30T17:30:32.591Z,31.37
2017-08-30T17:33:00.986Z,31.34
2017-08-30T17:35:30.367Z,31.35
2017-08-30T17:38:00.087Z,31.26
2017-08-30T17:40:29.565Z,31.20
2017-08-30T17:42:57.972Z,31.09
2017-08-30T17:45:26.674Z,31.04
2017-08-30T17:47:55.094Z,30.97
2017-08-30T17:50:23.494Z,30.81
2017-08-30T17:52:53.030Z,30.80
2017-08-30T17:55:22.142Z,30.82
2017-08-30T17:57:51.333Z,30.78
2017-08-30T18:00:20.309Z,30.67
2017-08-30T18:02:49.189Z,30.58
2017-08-30T18:05:18.707Z,30.49
2017-08-30T18:07:48.245Z,30.35
2017-08-30T18:10:18.235Z,30.27
2017-08-30T18:12:46.962Z,30.36
2017-08-30T18:15:16.178Z,30.20
2017-08-30T18:17:45.312Z,30.03
2017-08-30T18:20:14.031Z,30.32
2017-08-30T18:22:44.596Z,30.27
2017-08-30T18:25:13.517Z,30.25
2017-08-30T18:27:42.107Z,30.14
2017-08-30T18:30:13.167Z,30.07
2017-08-30T18:32:41.858Z,29.82
2017-08-30T18:35:11.635Z,29.90
2017-08-30T18:37:40.483Z,29.94
2017-08-30T18:40:09.054Z,29.80
2017-08-30T18:42:37.873Z,29.75
2017-08-30T18:45:07.114Z,29.66
2017-08-30T18:47:35.650Z,29.40
2017-08-30T18:50:04.671Z,29.51
2017-08-30T18:52:35.653Z,29.56
2017-08-30T18:55:05.422Z,29.53
2017-08-30T18:57:34.198Z,29.50
2017-08-30T19:00:04.376Z,29.47
2017-08-30T19:02:33.905Z,29.39
2017-08-30T19:05:03.391Z,29.07
2017-08-30T19:07:32.736Z,29.26
2017-08-30T19:10:01.239Z,29.39
2017-08-30T19:12:29.894Z,29.34
2017-08-30T19:14:59.309Z,29.21
2017-08-30T19:17:28.247Z,29.18
2017-08-30T19:19:56.759Z,29.15
2017-08-30T19:22:26.175Z,29.06
2017-08-30T19:24:59.077Z,28.92
2017-08-30T19:27:29.474Z,28.82
2017-08-30T19:29:58.378Z,28.76
2017-08-30T19:32:27.565Z,28.76
2017-08-30T19:34:56.748Z,28.63
2017-08-30T19:37:25.598Z,28.68
2017-08-30T19:39:55.114Z,28.83
2017-08-30T19:42:25.653Z,28.71
2017-08-30T19:44:54.263Z,28.33
2017-08-30T19:47:22.787Z,28.15
2017-08-30T19:49:51.639Z,28.42
2017-08-30T19:52:20.320Z,28.48
2017-08-30T19:54:49.509Z,28.67
2017-08-30T19:57:18.502Z,28.75
2017-08-30T19:59:46.988Z,28.87
2017-08-30T20:02:15.810Z,28.82
2017-08-30T20:04:45.742Z,28.63
2017-08-30T20:07:15.686Z,28.33
2017-08-30T20:09:44.081Z,28.29
2017-08-30T20:12:13.398Z,28.18
2017-08-30T20:14:41.749Z,28.34
2017-08-30T20:17:10.330Z,28.38
2017-08-30T20:19:39.005Z,28.32
2017-08-30T20:22:08.274Z,28.32
2017-08-30T20:24:36.690Z,28.22
2017-08-30T20:27:05.584Z,28.08
2017-08-30T20:29:34.725Z,28.11
2017-08-30T20:32:03.085Z,28.12
2017-08-30T20:34:31.833Z,27.94
2017-08-30T20:37:00.232Z,27.92
2017-08-30T20:39:29.201Z,27.95
2017-08-30T20:41:58.009Z,27.92
2017-08-30T20:44:26.386Z,28.01
2017-08-30T20:46:57.782Z,27.96
2017-08-30T20:49:26.647Z,27.73
2017-08-30T20:51:54.992Z,27.71
2017-08-30T20:54:23.343Z,27.71
2017-08-30T20:56:52.777Z,27.40
2017-08-30T20:59:22.029Z,27.54
2017-08-30T21:01:51.511Z,27.52
2017-08-30T21:04:20.163Z,27.58
2017-08-30T21:06:49.320Z,27.34
2017-08-30T21:09:18.552Z,27.32
2017-08-30T21:11:47.305Z,27.37
2017-08-30T21:14:15.666Z,27.22
2017-08-30T21:16:44.015Z,27.22
2017-08-30T21:19:12.871Z,27.04
2017-08-30T21:21:41.240Z,27.05
2017-08-30T21:24:09.656Z,26.98
2017-08-30T21:26:38.287Z,27.19
2017-08-30T21:29:06.639Z,27.05
2017-08-30T21:31:35.043Z,27.18
2017-08-30T21:34:03.767Z,27.14
2017-08-30T21:36:32.169Z,27.08
2017-08-30T21:39:00.888Z,27.16
2017-08-30T21:41:29.661Z,27.18
2017-08-30T21:43:58.042Z,27.01
2017-08-30T21:46:26.465Z,26.85
2017-08-30T21:48:56.179Z,26.95
2017-08-30T21:51:24.621Z,26.68
2017-08-30T21:53:53.039Z,26.62
2017-08-30T21:56:22.035Z,26.59
2017-08-30T21:58:50.390Z,26.59
2017-08-30T22:01:18.781Z,26.59
2017-08-30T22:03:48.008Z,26.42
2017-08-30T22:06:16.418Z,26.16
2017-08-30T22:08:44.804Z,26.23
2017-08-30T22:11:13.681Z,26.18
2017-08-30T22:13:42.073Z,26.19
2017-08-30T22:16:11.833Z,26.19
2017-08-30T22:18:40.571Z,26.29
2017-08-30T22:21:08.982Z,26.20
2017-08-30T22:23:37.610Z,26.31
2017-08-30T22:26:07.040Z,26.41
2017-08-30T22:28:36.481Z,26.26
2017-08-30T22:31:04.853Z,26.17
2017-08-30T22:33:33.747Z,26.25
2017-08-30T22:36:02.124Z,26.36
2017-08-30T22:38:30.719Z,26.46
2017-08-30T22:40:59.571Z,26.18
2017-08-30T22:43:27.940Z,26.17
2017-08-30T22:45:56.324Z,26.10
2017-08-30T22:48:25.290Z,26.33
2017-08-30T22:50:53.650Z,26.21
2017-08-30T22:53:22.026Z,26.22
2017-08-30T22:55:50.696Z,26.38
2017-08-30T22:58:19.040Z,26.21
2017-08-30T23:00:47.416Z,26.12
2017-08-30T23:03:16.325Z,26.14
2017-08-30T23:05:44.757Z,26.17
2017-08-30T23:08:13.150Z,26.25
2017-08-30T23:10:41.957Z,26.17
2017-08-30T23:13:10.321Z,26.18
2017-08-30T23:15:38.679Z,26.15
2017-08-30T23:18:07.849Z,26.00
2017-08-30T23:20:36.210Z,26.03
2017-08-30T23:23:04.594Z,25.87
2017-08-30T23:25:33.447Z,25.76
2017-08-30T23:28:03.272Z,25.76
2017-08-30T23:30:33.116Z,25.77
2017-08-30T23:33:02.343Z,25.63
2017-08-30T23:35:31.627Z,25.53
2017-08-30T23:37:59.993Z,25.45
2017-08-30T23:40:28.913Z,25.24
2017-08-30T23:42:57.288Z,25.31
2017-08-30T23:45:25.673Z,25.32
2017-08-30T23:47:54.739Z,25.28
2017-08-30T23:50:23.184Z,25.33
2017-08-30T23:52:51.576Z,25.33
2017-08-30T23:55:20.584Z,25.38
2017-08-30T23:57:48.949Z,25.38
